createdAt,value
2023-05-01T00:00:48.209Z,12.4730
2023-05-01T00:01:50.169Z,12.4715
2023-05-01T00:02:52.178Z,12.4389
2023-05-01T00:03:54.300Z,12.4547
2023-05-01T00:04:56.725Z,12.4101
2023-05-01T00:05:58.723Z,12.3950
2023-05-01T00:07:00.621Z,12.3757
2023-05-01T00:08:02.505Z,12.3854
2023-05-01T00:09:04.433Z,12.3782
2023-05-01T00:10:06.367Z,12.3601
2023-05-01T00:11:08.316Z,12.3316
2023-05-01T00:12:10.286Z,12.3691
2023-05-01T00:13:12.144Z,12.3737
2023-05-01T00:14:14.047Z,12.3482
2023-05-01T00:15:15.890Z,12.3528
2023-05-01T00:16:17.846Z,12.3673
2023-05-01T00:17:19.761Z,12.3679
2023-05-01T00:18:21.648Z,12.3720
2023-05-01T00:19:23.533Z,12.4191
2023-05-01T00:20:25.461Z,12.4536
2023-05-01T00:21:27.389Z,12.4278
2023-05-01T00:22:29.305Z,12.4331
2023-05-01T00:23:31.216Z,12.4275
2023-05-01T00:24:33.183Z,12.4632
2023-05-01T00:25:35.065Z,12.4282
2023-05-01T00:26:36.999Z,12.3541
2023-05-01T00:27:38.892Z,12.3888
2023-05-01T00:28:40.837Z,12.3788
2023-05-01T00:29:42.735Z,12.3653
2023-05-01T00:30:44.628Z,12.3384
2023-05-01T00:31:46.617Z,12.2342
2023-05-01T00:32:48.531Z,12.1880
2023-05-01T00:33:50.406Z,12.1609
2023-05-01T00:34:52.303Z,12.1512
2023-05-01T00:35:54.194Z,12.1812
2023-05-01T00:36:56.132Z,12.1180
2023-05-01T00:37:58.026Z,12.1141
2023-05-01T00:38:59.949Z,12.0602
2023-05-01T00:40:01.860Z,12.0442
2023-05-01T00:41:03.830Z,12.0269
2023-05-01T00:42:05.710Z,12.0467
2023-05-01T00:43:07.640Z,12.0775
2023-05-01T00:44:09.543Z,12.0897
2023-05-01T00:45:11.431Z,12.0538
2023-05-01T00:46:13.318Z,12.0030
2023-05-01T00:47:15.190Z,11.9654
2023-05-01T00:48:17.062Z,11.9809
2023-05-01T00:49:18.969Z,11.8918
2023-05-01T00:50:20.892Z,11.8504
2023-05-01T00:51:22.793Z,11.7975
2023-05-01T00:52:24.719Z,11.7109
2023-05-01T00:53:26.673Z,11.6599
2023-05-01T00:54:28.560Z,11.6030
2023-05-01T00:55:30.434Z,11.5509
2023-05-01T00:56:32.417Z,11.5137
2023-05-01T00:57:34.301Z,11.4739
2023-05-01T00:58:36.185Z,11.4850
2023-05-01T00:59:38.160Z,11.4966
2023-05-01T01:00:40.087Z,11.5303
2023-05-01T01:01:40.396Z,11.4758
2023-05-01T01:02:42.321Z,11.4459
2023-05-01T01:03:44.232Z,11.4471
2023-05-01T01:04:46.180Z,11.3143
2023-05-01T01:05:48.120Z,11.3994
2023-05-01T01:06:50.074Z,11.3218
2023-05-01T01:07:51.981Z,11.2756
2023-05-01T01:08:53.961Z,11.1931
2023-05-01T01:09:56.133Z,11.1462
2023-05-01T01:10:58.418Z,11.1053
2023-05-01T01:12:00.382Z,11.0485
2023-05-01T01:13:02.402Z,11.0318
2023-05-01T01:14:04.361Z,11.0782
2023-05-01T01:15:06.254Z,11.0048
2023-05-01T01:16:08.233Z,10.9668
2023-05-01T01:17:10.276Z,10.9342
2023-05-01T01:18:12.373Z,10.8691
2023-05-01T01:19:14.258Z,10.8888
2023-05-01T01:20:16.175Z,10.8125
2023-05-01T01:21:18.107Z,10.7300
2023-05-01T01:22:20.039Z,10.7208
2023-05-01T01:23:21.903Z,10.6760
2023-05-01T01:24:23.800Z,10.5892
2023-05-01T01:25:25.725Z,10.5256
2023-05-01T01:26:27.661Z,10.5023
2023-05-01T01:27:29.572Z,10.5392
2023-05-01T01:28:31.450Z,10.5180
2023-05-01T01:29:33.395Z,10.4967
2023-05-01T01:30:35.346Z,10.4455
2023-05-01T01:31:37.372Z,10.4304
2023-05-01T01:32:39.404Z,10.4217
2023-05-01T01:33:41.293Z,10.4307
2023-05-01T01:34:43.212Z,10.3662
2023-05-01T01:35:45.140Z,10.3296
2023-05-01T01:36:47.082Z,10.3213
2023-05-01T01:37:49.142Z,10.2718
2023-05-01T01:38:51.117Z,10.2735
2023-05-01T01:39:53.221Z,10.2952
2023-05-01T01:40:55.163Z,10.3003
2023-05-01T01:41:57.137Z,10.2827
2023-05-01T01:42:59.033Z,10.2696
2023-05-01T01:44:01.010Z,10.2259
2023-05-01T01:45:02.944Z,10.2059
2023-05-01T01:46:04.876Z,10.1906
2023-05-01T01:47:06.842Z,10.2012
2023-05-01T01:48:08.812Z,10.1492
2023-05-01T01:49:10.954Z,10.1797
2023-05-01T01:50:13.009Z,10.2155
2023-05-01T01:51:14.919Z,10.2580
2023-05-01T01:52:16.913Z,10.2071
2023-05-01T01:53:18.809Z,10.2717
2023-05-01T01:54:20.774Z,10.3582
2023-05-01T01:55:22.695Z,10.3191
2023-05-01T01:56:25.466Z,10.3833
2023-05-01T01:57:27.406Z,10.3393
2023-05-01T01:58:29.321Z,10.2895
2023-05-01T01:59:31.312Z,10.2779
2023-05-01T02:00:33.212Z,10.2754
2023-05-01T02:01:35.281Z,10.2962
2023-05-01T02:02:37.259Z,10.3824
2023-05-01T02:03:39.683Z,10.3867
2023-05-01T02:04:41.715Z,10.3597
2023-05-01T02:05:43.690Z,10.3199
2023-05-01T02:06:45.802Z,10.2327
2023-05-01T02:07:48.130Z,10.1317
2023-05-01T02:08:50.053Z,10.0471
2023-05-01T02:09:52.043Z,10.0123
2023-05-01T02:10:54.084Z,10.0347
2023-05-01T02:11:56.107Z,10.0369
2023-05-01T02:12:58.092Z,10.1042
2023-05-01T02:14:00.156Z,10.1834
2023-05-01T02:15:02.132Z,10.1488
2023-05-01T02:16:04.166Z,10.1475
2023-05-01T02:17:06.126Z,10.1083
2023-05-01T02:18:08.222Z,10.1260
2023-05-01T02:19:10.351Z,10.0664
2023-05-01T02:20:12.360Z,9.9869
2023-05-01T02:21:14.378Z,9.9116
2023-05-01T02:22:16.384Z,9.8878
2023-05-01T02:23:18.371Z,9.8394
2023-05-01T02:24:20.293Z,9.8182
2023-05-01T02:25:22.465Z,9.7836
2023-05-01T02:26:24.676Z,9.7389
2023-05-01T02:27:26.643Z,9.6747
2023-05-01T02:28:28.578Z,9.6195
2023-05-01T02:29:30.618Z,9.6528
2023-05-01T02:30:32.565Z,9.6803
2023-05-01T02:31:34.555Z,9.6749
2023-05-01T02:32:36.587Z,9.6042
2023-05-01T02:33:38.552Z,9.5956
2023-05-01T02:34:40.881Z,9.5852
2023-05-01T02:35:43.664Z,9.5469
2023-05-01T02:36:45.588Z,9.5178
2023-05-01T02:37:47.566Z,9.5245
2023-05-01T02:38:49.542Z,9.5702
2023-05-01T02:39:51.508Z,9.5880
2023-05-01T02:40:53.540Z,9.6039
2023-05-01T02:41:55.488Z,9.6221
2023-05-01T02:42:57.462Z,9.5733
2023-05-01T02:43:59.403Z,9.6244
2023-05-01T02:45:01.355Z,9.6012
2023-05-01T02:46:03.367Z,9.5747
2023-05-01T02:47:05.332Z,9.6216
2023-05-01T02:48:07.372Z,9.6048
2023-05-01T02:49:09.346Z,9.5382
2023-05-01T02:50:11.332Z,9.5430
2023-05-01T02:51:13.306Z,9.5793
2023-05-01T02:52:15.302Z,9.5599
2023-05-01T02:53:17.289Z,9.5559
2023-05-01T02:54:19.265Z,9.5672
2023-05-01T02:55:21.320Z,9.5804
2023-05-01T02:56:23.329Z,9.6170
2023-05-01T02:57:25.373Z,9.6400
2023-05-01T02:58:27.328Z,9.6831
2023-05-01T02:59:29.282Z,9.6507
2023-05-01T03:00:31.214Z,9.6433
2023-05-01T03:01:33.207Z,9.6466
2023-05-01T03:02:35.199Z,9.6450
2023-05-01T03:03:37.132Z,9.6962
2023-05-01T03:04:39.181Z,9.7750
2023-05-01T03:05:41.590Z,9.8023
2023-05-01T03:06:43.544Z,9.7271
2023-05-01T03:07:45.692Z,9.6883
2023-05-01T03:08:47.690Z,9.6241
2023-05-01T03:09:49.643Z,9.5540
2023-05-01T03:10:51.595Z,9.5251
2023-05-01T03:11:53.614Z,9.5446
2023-05-01T03:12:55.559Z,9.6069
2023-05-01T03:13:57.535Z,9.6511
2023-05-01T03:14:59.443Z,9.6917
2023-05-01T03:16:01.442Z,9.7023
2023-05-01T03:17:03.396Z,9.7363
2023-05-01T03:18:05.451Z,9.7504
2023-05-01T03:19:07.528Z,9.7574
2023-05-01T03:20:09.557Z,9.7360
2023-05-01T03:21:11.531Z,9.7391
2023-05-01T03:22:13.505Z,9.6505
2023-05-01T03:23:15.503Z,9.6732
2023-05-01T03:24:17.490Z,9.6290
2023-05-01T03:25:19.453Z,9.6581
2023-05-01T03:26:21.449Z,9.6479
2023-05-01T03:27:23.445Z,9.6171
2023-05-01T03:28:25.437Z,9.5057
2023-05-01T03:29:27.396Z,9.5231
2023-05-01T03:30:29.372Z,9.4877
2023-05-01T03:31:31.419Z,9.4679
2023-05-01T03:32:33.453Z,9.4860
2023-05-01T03:33:35.412Z,9.5497
2023-05-01T03:34:37.377Z,9.5966
2023-05-01T03:35:39.295Z,9.5836
2023-05-01T03:36:40.940Z,9.5775
2023-05-01T03:37:42.540Z,9.5587
2023-05-01T03:38:44.174Z,9.4996
2023-05-01T03:39:45.817Z,9.4637
2023-05-01T03:40:47.404Z,9.5180
2023-05-01T03:41:48.998Z,9.5347
2023-05-01T03:42:50.644Z,9.3906
2023-05-01T03:43:52.265Z,9.3189
2023-05-01T03:44:53.894Z,9.3726
2023-05-01T03:45:55.533Z,9.4059
2023-05-01T03:46:57.139Z,9.4439
2023-05-01T03:47:58.846Z,9.4451
2023-05-01T03:49:00.436Z,9.4580
2023-05-01T03:50:02.130Z,9.4945
2023-05-01T03:51:03.724Z,9.5344
2023-05-01T03:52:05.370Z,9.5092
2023-05-01T03:53:07.017Z,9.4705
2023-05-01T03:54:08.678Z,9.4649
2023-05-01T03:55:10.281Z,9.4145
2023-05-01T03:56:11.923Z,9.3927
2023-05-01T03:57:13.555Z,9.4120
2023-05-01T03:58:15.199Z,9.4425
2023-05-01T03:59:16.831Z,9.4456
2023-05-01T04:00:18.509Z,9.3867
2023-05-01T04:01:20.104Z,9.3819
2023-05-01T04:02:21.827Z,9.3931
2023-05-01T04:03:23.513Z,9.3241
2023-05-01T04:04:25.357Z,9.3301
2023-05-01T04:05:27.176Z,9.3598
2023-05-01T04:06:28.784Z,9.4521
2023-05-01T04:07:30.454Z,9.5381
2023-05-01T04:08:32.100Z,9.5247
2023-05-01T04:09:33.722Z,9.5586
2023-05-01T04:10:35.426Z,9.5325
2023-05-01T04:11:36.999Z,9.5327
2023-05-01T04:12:38.695Z,9.5205
2023-05-01T04:13:40.339Z,9.5288
2023-05-01T04:14:41.970Z,9.5410
2023-05-01T04:15:43.617Z,9.5741
2023-05-01T04:16:45.176Z,9.6077
2023-05-01T04:17:46.845Z,9.5954
2023-05-01T04:18:48.516Z,9.5522
2023-05-01T04:19:50.176Z,9.5630
2023-05-01T04:20:51.882Z,9.6126
2023-05-01T04:21:53.469Z,9.5417
2023-05-01T04:22:55.160Z,9.5789
2023-05-01T04:23:56.852Z,9.5388
2023-05-01T04:24:58.442Z,9.5505
2023-05-01T04:26:00.063Z,9.5390
2023-05-01T04:27:01.683Z,9.6031
2023-05-01T04:28:03.293Z,9.4766
2023-05-01T04:29:05.022Z,9.4490
2023-05-01T04:30:06.633Z,9.4955
2023-05-01T04:31:08.272Z,9.5276
2023-05-01T04:32:10.057Z,9.5245
2023-05-01T04:33:11.930Z,9.5291
2023-05-01T04:34:13.576Z,9.5214
2023-05-01T04:35:15.270Z,9.5214
2023-05-01T04:36:16.948Z,9.5184
2023-05-01T04:37:18.550Z,9.5133
2023-05-01T04:38:20.202Z,9.5764
2023-05-01T04:39:21.767Z,9.6154
2023-05-01T04:40:23.345Z,9.6387
2023-05-01T04:41:24.972Z,9.6622
2023-05-01T04:42:26.629Z,9.6527
2023-05-01T04:43:28.273Z,9.6544
2023-05-01T04:44:29.884Z,9.6234
2023-05-01T04:45:31.499Z,9.6060
2023-05-01T04:46:33.172Z,9.5882
2023-05-01T04:47:35.018Z,9.6357
2023-05-01T04:48:36.885Z,9.7006
2023-05-01T04:49:38.516Z,9.7156
2023-05-01T04:50:40.442Z,9.7029
2023-05-01T04:51:42.122Z,9.6287
2023-05-01T04:52:43.684Z,9.6283
2023-05-01T04:53:45.353Z,9.6495
2023-05-01T04:54:47.025Z,9.6334
2023-05-01T04:55:48.650Z,9.6499
2023-05-01T04:56:50.299Z,9.6851
2023-05-01T04:57:51.948Z,9.7088
2023-05-01T04:58:53.568Z,9.7108
2023-05-01T04:59:55.484Z,9.7277
2023-05-01T05:00:57.758Z,9.7142
2023-05-01T05:01:59.579Z,9.7329
2023-05-01T05:03:01.365Z,9.6802
2023-05-01T05:04:03.253Z,9.6393
2023-05-01T05:05:05.019Z,9.6628
2023-05-01T05:06:06.719Z,9.6550
2023-05-01T05:07:08.393Z,9.6732
2023-05-01T05:08:10.044Z,9.7150
2023-05-01T05:09:11.746Z,9.7245
2023-05-01T05:10:13.488Z,9.6597
2023-05-01T05:11:15.131Z,9.6420
2023-05-01T05:12:16.733Z,9.6088
2023-05-01T05:13:18.496Z,9.6124
2023-05-01T05:14:20.111Z,9.6115
2023-05-01T05:15:21.771Z,9.5985
2023-05-01T05:16:23.376Z,9.6292
2023-05-01T05:17:24.938Z,9.6480
2023-05-01T05:18:26.578Z,9.6420
2023-05-01T05:19:28.183Z,9.6886
2023-05-01T05:20:29.846Z,9.7114
2023-05-01T05:21:31.478Z,9.6570
2023-05-01T05:22:33.126Z,9.6775
2023-05-01T05:23:34.779Z,9.6972
2023-05-01T05:24:36.444Z,9.6976
2023-05-01T05:25:38.158Z,9.6499
2023-05-01T05:26:39.806Z,9.6637
2023-05-01T05:27:41.414Z,9.7237
2023-05-01T05:28:43.131Z,9.7614
2023-05-01T05:29:44.810Z,9.7124
2023-05-01T05:30:46.518Z,9.6976
2023-05-01T05:31:48.207Z,9.6849
2023-05-01T05:32:49.834Z,9.6899
2023-05-01T05:33:51.553Z,9.7478
2023-05-01T05:34:53.175Z,9.7505
2023-05-01T05:35:54.914Z,9.7584
2023-05-01T05:36:56.509Z,9.7434
2023-05-01T05:37:58.153Z,9.6698
2023-05-01T05:38:59.814Z,9.6876
2023-05-01T05:40:01.424Z,9.7204
2023-05-01T05:41:03.072Z,9.7519
2023-05-01T05:42:04.732Z,9.7657
2023-05-01T05:43:06.486Z,9.7703
2023-05-01T05:44:08.129Z,9.7834
2023-05-01T05:45:09.795Z,9.7802
2023-05-01T05:46:11.420Z,9.8068
2023-05-01T05:47:13.019Z,9.8256
2023-05-01T05:48:14.722Z,9.8295
2023-05-01T05:49:16.371Z,9.8573
2023-05-01T05:50:17.987Z,9.8513
2023-05-01T05:51:19.587Z,9.8026
2023-05-01T05:52:21.292Z,9.7833
2023-05-01T05:53:25.584Z,9.7927
2023-05-01T05:54:24.969Z,9.7492
2023-05-01T05:55:26.624Z,9.7260
2023-05-01T05:56:28.248Z,9.7381
2023-05-01T05:57:29.941Z,9.7599
2023-05-01T05:58:31.499Z,9.7704
2023-05-01T05:59:33.143Z,9.7817
2023-05-01T06:00:34.711Z,9.7828
2023-05-01T06:01:36.355Z,9.7955
2023-05-01T06:02:38.047Z,9.8308
2023-05-01T06:03:39.910Z,9.8358
2023-05-01T06:04:41.651Z,9.8625
2023-05-01T06:05:43.361Z,9.8748
2023-05-01T06:06:45.304Z,9.9173
2023-05-01T06:07:47.278Z,9.8709
2023-05-01T06:08:49.251Z,9.8643
2023-05-01T06:09:51.262Z,9.8319
2023-05-01T06:10:53.317Z,9.8123
2023-05-01T06:11:55.189Z,9.8378
2023-05-01T06:13:03.032Z,9.8626
2023-05-01T06:13:58.829Z,9.8721
2023-05-01T06:15:00.655Z,9.9027
2023-05-01T06:16:02.350Z,9.8981
2023-05-01T06:17:03.927Z,9.9043
2023-05-01T06:18:05.570Z,9.9338
2023-05-01T06:19:07.189Z,9.9171
2023-05-01T06:20:08.846Z,9.9460
2023-05-01T06:21:10.499Z,9.9469
2023-05-01T06:22:12.231Z,9.9266
2023-05-01T06:23:13.832Z,9.9719
2023-05-01T06:24:15.432Z,9.9819
2023-05-01T06:25:17.258Z,10.0258
2023-05-01T06:26:18.922Z,10.0263
2023-05-01T06:27:20.595Z,10.0724
2023-05-01T06:28:22.189Z,10.0933
2023-05-01T06:29:23.830Z,10.1003
2023-05-01T06:30:25.497Z,10.0968
2023-05-01T06:31:27.230Z,10.0714
2023-05-01T06:32:29.007Z,10.0975
2023-05-01T06:33:30.678Z,10.1252
2023-05-01T06:34:32.316Z,10.1485
2023-05-01T06:35:34.029Z,10.1604
2023-05-01T06:36:35.692Z,10.1287
2023-05-01T06:37:37.328Z,10.1436
2023-05-01T06:38:38.982Z,10.1968
2023-05-01T06:39:40.597Z,10.1787
2023-05-01T06:40:42.283Z,10.2070
2023-05-01T06:41:43.921Z,10.2050
2023-05-01T06:42:45.604Z,10.2373
2023-05-01T06:43:47.224Z,10.2867
2023-05-01T06:44:48.911Z,10.3346
2023-05-01T06:45:50.560Z,10.3415
2023-05-01T06:46:52.267Z,10.3338
2023-05-01T06:47:53.941Z,10.3295
2023-05-01T06:48:55.607Z,10.3225
2023-05-01T06:49:57.536Z,10.2753
2023-05-01T06:50:59.392Z,10.3268
2023-05-01T06:52:01.058Z,10.3064
2023-05-01T06:53:02.694Z,10.3630
2023-05-01T06:54:04.323Z,10.3411
2023-05-01T06:55:05.940Z,10.4050
2023-05-01T06:56:07.589Z,10.4215
2023-05-01T06:57:09.212Z,10.3889
2023-05-01T06:58:22.364Z,10.4122
2023-05-01T06:59:12.783Z,10.4412
2023-05-01T07:00:14.505Z,10.4524
2023-05-01T07:01:16.235Z,10.5476
2023-05-01T07:02:17.962Z,10.5569
2023-05-01T07:03:19.725Z,10.5033
2023-05-01T07:04:21.507Z,10.5823
2023-05-01T07:05:23.154Z,10.6103
2023-05-01T07:06:24.777Z,10.6333
2023-05-01T07:07:26.437Z,10.6969
2023-05-01T07:08:28.097Z,10.6909
2023-05-01T07:09:29.719Z,10.6708
2023-05-01T07:10:31.371Z,10.6596
2023-05-01T07:11:33.085Z,10.6399
2023-05-01T07:12:34.758Z,10.7185
2023-05-01T07:13:36.506Z,10.7466
2023-05-01T07:14:38.199Z,10.7919
2023-05-01T07:15:40.184Z,10.7812
2023-05-01T07:16:42.238Z,10.7304
2023-05-01T07:17:44.266Z,10.6998
2023-05-01T07:18:46.304Z,10.7134
2023-05-01T07:19:48.250Z,10.7528
2023-05-01T07:20:50.396Z,10.7464
2023-05-01T07:21:52.494Z,10.7381
2023-05-01T07:22:54.511Z,10.7709
2023-05-01T07:23:56.540Z,10.7528
2023-05-01T07:24:58.508Z,10.8031
2023-05-01T07:26:00.615Z,10.7834
2023-05-01T07:27:02.649Z,10.7858
2023-05-01T07:28:04.921Z,10.7511
2023-05-01T07:29:06.974Z,10.7945
2023-05-01T07:30:08.996Z,10.8618
2023-05-01T07:31:11.261Z,10.9067
2023-05-01T07:32:13.429Z,10.9180
2023-05-01T07:33:15.762Z,10.9963
2023-05-01T07:34:17.815Z,11.0169
2023-05-01T07:35:19.838Z,10.9600
2023-05-01T07:36:21.843Z,10.8511
2023-05-01T07:37:23.869Z,10.8584
2023-05-01T07:38:25.851Z,10.9013
2023-05-01T07:39:27.854Z,10.8310
2023-05-01T07:40:29.929Z,10.8136
2023-05-01T07:41:31.961Z,10.8571
2023-05-01T07:42:34.054Z,10.8481
2023-05-01T07:43:36.080Z,10.8441
2023-05-01T07:44:38.138Z,10.8734
2023-05-01T07:45:40.332Z,10.8452
2023-05-01T07:46:42.538Z,10.8365
2023-05-01T07:47:44.584Z,10.7606
2023-05-01T07:48:46.737Z,10.7150
2023-05-01T07:49:48.729Z,10.7947
2023-05-01T07:50:50.814Z,10.7787
2023-05-01T07:51:52.921Z,10.7283
2023-05-01T07:52:54.957Z,10.7248
2023-05-01T07:53:56.981Z,10.7731
2023-05-01T07:54:58.980Z,10.7931
2023-05-01T07:56:01.049Z,10.8314
2023-05-01T07:57:03.204Z,10.7499
2023-05-01T07:58:05.237Z,10.6771
2023-05-01T07:59:07.258Z,10.7018
2023-05-01T08:00:09.304Z,10.7516
2023-05-01T08:01:11.317Z,10.7841
2023-05-01T08:02:13.349Z,10.7557
2023-05-01T08:03:15.484Z,10.7640
2023-05-01T08:04:17.684Z,10.7562
2023-05-01T08:05:19.776Z,10.7784
2023-05-01T08:06:21.851Z,10.7963
2023-05-01T08:07:23.815Z,10.8077
2023-05-01T08:08:25.862Z,10.7926
2023-05-01T08:09:27.985Z,10.8102
2023-05-01T08:10:30.113Z,10.8140
2023-05-01T08:11:32.182Z,10.8348
2023-05-01T08:12:34.185Z,10.8782
2023-05-01T08:13:36.271Z,10.8491
2023-05-01T08:14:38.327Z,10.8294
2023-05-01T08:15:40.396Z,10.8508
2023-05-01T08:16:42.480Z,10.8641
2023-05-01T08:17:44.577Z,10.8565
2023-05-01T08:18:47.105Z,10.8573
2023-05-01T08:19:49.182Z,10.9372
2023-05-01T08:20:51.034Z,10.9672
2023-05-01T08:21:52.835Z,10.9921
2023-05-01T08:22:54.452Z,11.0185
2023-05-01T08:23:56.196Z,11.0886
2023-05-01T08:24:57.929Z,11.1242
2023-05-01T08:25:59.619Z,11.2030
2023-05-01T08:27:01.312Z,11.2109
2023-05-01T08:28:02.990Z,11.1815
2023-05-01T08:29:04.654Z,11.2186
2023-05-01T08:30:06.324Z,11.2541
2023-05-01T08:31:08.033Z,11.2606
2023-05-01T08:32:09.666Z,11.3090
2023-05-01T08:33:11.357Z,11.3115
2023-05-01T08:34:13.025Z,11.3523
2023-05-01T08:35:14.768Z,11.3819
2023-05-01T08:36:16.441Z,11.3734
2023-05-01T08:37:18.147Z,11.3342
2023-05-01T08:38:19.863Z,11.2644
2023-05-01T08:39:21.511Z,11.2585
2023-05-01T08:40:23.315Z,11.1974
2023-05-01T08:41:24.980Z,11.2232
2023-05-01T08:42:26.712Z,11.2777
2023-05-01T08:43:28.384Z,11.2434
2023-05-01T08:44:30.119Z,11.2471
2023-05-01T08:45:31.995Z,11.2482
2023-05-01T08:46:33.781Z,11.2019
2023-05-01T08:47:35.472Z,11.1518
2023-05-01T08:48:37.174Z,11.1207
2023-05-01T08:49:39.002Z,11.1489
2023-05-01T08:50:40.720Z,11.1928
2023-05-01T08:51:42.435Z,11.2403
2023-05-01T08:52:44.149Z,11.2703
2023-05-01T08:53:45.922Z,11.2715
2023-05-01T08:54:47.632Z,11.1723
2023-05-01T08:55:49.304Z,11.2161
2023-05-01T08:56:50.993Z,11.2153
2023-05-01T08:57:52.668Z,11.1899
2023-05-01T08:58:54.327Z,11.1397
2023-05-01T08:59:56.125Z,11.1780
2023-05-01T09:00:57.953Z,11.1030
2023-05-01T09:01:59.705Z,11.0610
2023-05-01T09:03:01.516Z,11.0628
2023-05-01T09:04:03.302Z,11.0906
2023-05-01T09:05:05.325Z,11.1585
2023-05-01T09:06:07.115Z,11.1571
2023-05-01T09:07:08.832Z,11.1787
2023-05-01T09:08:10.541Z,11.2070
2023-05-01T09:09:12.171Z,11.2118
2023-05-01T09:10:14.039Z,11.2677
2023-05-01T09:11:15.726Z,11.3146
2023-05-01T09:12:17.532Z,11.3492
2023-05-01T09:13:19.215Z,11.3586
2023-05-01T09:14:20.857Z,11.3941
2023-05-01T09:15:22.567Z,11.3725
2023-05-01T09:16:24.335Z,11.3993
2023-05-01T09:17:26.081Z,11.4134
2023-05-01T09:18:27.713Z,11.4410
2023-05-01T09:19:29.406Z,11.4288
2023-05-01T09:20:31.135Z,11.5335
2023-05-01T09:21:32.865Z,11.4937
2023-05-01T09:22:34.528Z,11.5102
2023-05-01T09:23:36.177Z,11.5330
2023-05-01T09:24:37.864Z,11.5780
2023-05-01T09:25:39.783Z,11.6481
2023-05-01T09:26:41.453Z,11.5701
2023-05-01T09:27:43.135Z,11.6037
2023-05-01T09:28:44.759Z,11.6689
2023-05-01T09:29:46.438Z,11.7626
2023-05-01T09:30:48.187Z,11.8060
2023-05-01T09:31:49.833Z,11.7811
2023-05-01T09:32:51.636Z,11.7966
2023-05-01T09:33:53.321Z,11.7497
2023-05-01T09:34:55.047Z,11.6745
2023-05-01T09:35:56.827Z,11.6805
2023-05-01T09:36:58.510Z,11.7331
2023-05-01T09:38:00.161Z,11.8015
2023-05-01T09:39:01.891Z,11.8914
2023-05-01T09:40:03.604Z,11.8575
2023-05-01T09:41:05.298Z,11.8125
2023-05-01T09:42:06.999Z,11.8109
2023-05-01T09:43:11.149Z,11.9575
2023-05-01T09:44:10.717Z,12.0195
2023-05-01T09:45:12.388Z,11.9784
2023-05-01T09:46:14.186Z,12.0228
2023-05-01T09:47:15.906Z,12.0874
2023-05-01T09:48:17.598Z,12.1388
2023-05-01T09:49:19.419Z,12.2699
2023-05-01T09:50:21.103Z,12.3855
2023-05-01T09:51:22.806Z,12.3002
2023-05-01T09:52:24.555Z,12.3204
2023-05-01T09:53:26.264Z,12.3047
2023-05-01T09:54:27.916Z,12.2915
2023-05-01T09:55:29.643Z,12.2602
2023-05-01T09:56:31.411Z,12.3837
2023-05-01T09:57:33.110Z,12.4554
2023-05-01T09:58:34.897Z,12.3946
2023-05-01T09:59:36.545Z,12.3186
2023-05-01T10:00:38.196Z,12.3800
2023-05-01T10:01:40.074Z,12.3901
2023-05-01T10:02:41.981Z,12.5327
2023-05-01T10:03:43.734Z,12.5609
2023-05-01T10:04:45.414Z,12.5907
2023-05-01T10:05:47.038Z,12.5475
2023-05-01T10:06:48.817Z,12.6093
2023-05-01T10:07:50.512Z,12.6899
2023-05-01T10:08:52.177Z,12.7164
2023-05-01T10:09:53.975Z,12.5070
2023-05-01T10:10:55.772Z,12.6042
2023-05-01T10:11:57.723Z,12.6944
2023-05-01T10:12:59.927Z,12.6424
2023-05-01T10:14:01.608Z,12.7330
2023-05-01T10:15:13.679Z,12.6825
2023-05-01T10:16:05.298Z,12.5962
2023-05-01T10:17:07.031Z,12.6411
2023-05-01T10:18:08.929Z,12.6298
2023-05-01T10:19:10.642Z,12.6281
2023-05-01T10:20:12.360Z,12.6978
2023-05-01T10:21:14.037Z,12.6450
2023-05-01T10:22:15.862Z,12.6383
2023-05-01T10:23:17.514Z,12.6315
2023-05-01T10:24:19.241Z,12.5816
2023-05-01T10:25:20.970Z,12.4263
2023-05-01T10:26:22.640Z,12.3913
2023-05-01T10:27:24.336Z,12.4743
2023-05-01T10:28:26.041Z,12.6357
2023-05-01T10:29:27.669Z,12.6441
2023-05-01T10:30:29.373Z,12.7050
2023-05-01T10:31:31.248Z,12.7720
2023-05-01T10:32:32.994Z,12.7727
2023-05-01T10:33:34.623Z,12.7937
2023-05-01T10:34:36.257Z,12.8216
2023-05-01T10:35:37.902Z,12.7536
2023-05-01T10:36:39.571Z,12.6401
2023-05-01T10:37:41.252Z,12.7456
2023-05-01T10:38:42.902Z,12.8873
2023-05-01T10:39:44.487Z,13.0362
2023-05-01T10:40:46.161Z,13.1423
2023-05-01T10:41:47.790Z,13.2679
2023-05-01T10:42:49.422Z,13.3006
2023-05-01T10:43:51.081Z,13.1531
2023-05-01T10:44:52.702Z,13.1462
2023-05-01T10:45:54.345Z,13.0954
2023-05-01T10:46:56.076Z,12.9186
2023-05-01T10:47:57.866Z,12.9791
2023-05-01T10:48:59.591Z,13.1258
2023-05-01T10:50:01.205Z,13.0721
2023-05-01T10:51:02.868Z,13.0421
2023-05-01T10:52:04.472Z,12.9958
2023-05-01T10:53:06.096Z,13.0055
2023-05-01T10:54:07.744Z,13.1139
2023-05-01T10:55:09.404Z,13.1505
2023-05-01T10:56:11.004Z,13.0804
2023-05-01T10:57:12.806Z,13.0973
2023-05-01T10:58:14.556Z,13.2015
2023-05-01T10:59:16.222Z,12.9982
2023-05-01T11:00:17.816Z,12.9375
2023-05-01T11:01:19.471Z,13.0228
2023-05-01T11:02:21.359Z,13.0295
2023-05-01T11:03:23.165Z,12.9901
2023-05-01T11:04:24.908Z,12.8812
2023-05-01T11:05:37.973Z,12.7349
2023-05-01T11:06:28.723Z,12.7756
2023-05-01T11:07:30.428Z,12.8371
2023-05-01T11:08:32.160Z,12.7950
2023-05-01T11:09:33.926Z,12.7391
2023-05-01T11:10:35.603Z,12.7718
2023-05-01T11:11:37.254Z,12.8012
2023-05-01T11:12:38.909Z,12.9152
2023-05-01T11:13:40.654Z,13.0148
2023-05-01T11:14:42.294Z,12.8262
2023-05-01T11:15:43.975Z,12.7570
2023-05-01T11:16:45.734Z,12.6933
2023-05-01T11:17:47.519Z,12.6735
2023-05-01T11:18:49.202Z,12.6058
2023-05-01T11:19:51.071Z,12.5685
2023-05-01T11:20:52.751Z,12.5640
2023-05-01T11:21:54.449Z,12.4371
2023-05-01T11:22:56.086Z,12.3842
2023-05-01T11:23:57.790Z,12.4821
2023-05-01T11:24:59.709Z,12.5151
2023-05-01T11:26:01.638Z,12.4168
2023-05-01T11:27:03.333Z,12.3706
2023-05-01T11:28:04.999Z,12.3014
2023-05-01T11:29:06.723Z,12.3878
2023-05-01T11:30:08.409Z,12.3397
2023-05-01T11:31:10.060Z,12.2430
2023-05-01T11:32:11.937Z,12.2024
2023-05-01T11:33:13.722Z,12.2611
2023-05-01T11:34:15.387Z,12.2179
2023-05-01T11:35:17.046Z,12.2826
2023-05-01T11:36:18.875Z,12.2987
2023-05-01T11:37:20.519Z,12.3840
2023-05-01T11:38:22.232Z,12.3555
2023-05-01T11:39:23.918Z,12.4556
2023-05-01T11:40:25.642Z,12.4212
2023-05-01T11:41:27.326Z,12.4077
2023-05-01T11:42:29.020Z,12.3466
2023-05-01T11:43:30.885Z,12.3606
2023-05-01T11:44:32.570Z,12.4157
2023-05-01T11:45:34.289Z,12.3933
2023-05-01T11:46:36.163Z,12.4614
2023-05-01T11:47:37.891Z,12.4582
2023-05-01T11:48:39.555Z,12.4686
2023-05-01T11:49:41.197Z,12.5208
2023-05-01T11:50:42.807Z,12.5016
2023-05-01T11:51:44.502Z,12.5177
2023-05-01T11:52:46.107Z,12.4889
2023-05-01T11:53:47.754Z,12.4820
2023-05-01T11:54:49.477Z,12.4626
2023-05-01T11:55:51.178Z,12.5009
2023-05-01T11:56:52.870Z,12.3592
2023-05-01T11:57:54.606Z,12.4201
2023-05-01T11:58:56.471Z,12.4649
2023-05-01T11:59:58.395Z,12.5661
2023-05-01T12:01:00.157Z,12.5690
2023-05-01T12:02:02.125Z,12.5967
2023-05-01T12:03:04.379Z,12.5446
2023-05-01T12:04:06.945Z,12.5457
2023-05-01T12:05:09.324Z,12.5538
2023-05-01T12:06:11.448Z,12.5530
2023-05-01T12:07:13.537Z,12.5405
2023-05-01T12:08:16.133Z,12.6414
2023-05-01T12:09:18.277Z,12.7284
2023-05-01T12:10:20.375Z,12.7791
2023-05-01T12:11:22.376Z,12.8517
2023-05-01T12:12:24.415Z,12.7522
2023-05-01T12:13:26.442Z,12.8585
2023-05-01T12:14:28.489Z,13.0233
2023-05-01T12:15:30.577Z,12.9876
2023-05-01T12:16:32.884Z,12.9741
2023-05-01T12:17:34.987Z,12.9149
2023-05-01T12:18:37.034Z,12.8666
2023-05-01T12:19:39.075Z,12.9745
2023-05-01T12:20:41.085Z,13.0072
2023-05-01T12:21:43.170Z,13.0861
2023-05-01T12:22:45.503Z,13.1993
2023-05-01T12:23:47.890Z,13.2656
2023-05-01T12:24:50.306Z,13.2845
2023-05-01T12:25:52.290Z,13.3466
2023-05-01T12:26:54.302Z,13.6149
2023-05-01T12:27:56.327Z,13.7041
2023-05-01T12:28:58.406Z,13.8770
2023-05-01T12:30:00.443Z,13.9499
2023-05-01T12:31:04.220Z,14.0265
2023-05-01T12:32:04.840Z,13.9661
2023-05-01T12:33:06.902Z,13.7904
2023-05-01T12:34:08.912Z,13.8097
2023-05-01T12:35:10.894Z,13.8837
2023-05-01T12:36:12.923Z,13.9997